sensor_id;sensor_type;location;lat;lon;timestamp;temperature;humidity
8711;DHT22;4392;47.400;8.062;2023-02-08T00:01:08;3.10;78.10
8711;DHT22;4392;47.400;8.062;2023-02-08T00:03:34;3.10;78.00
8711;DHT22;4392;47.400;8.062;2023-02-08T00:06:07;3.30;80.00
8711;DHT22;4392;47.400;8.062;2023-02-08T00:08:33;3.40;80.00
8711;DHT22;4392;47.400;8.062;2023-02-08T00:10:59;3.30;78.40
8711;DHT22;4392;47.400;8.062;2023-02-08T00:13:27;3.20;77.70
8711;DHT22;4392;47.400;8.062;2023-02-08T00:15:54;3.10;77.20
8711;DHT22;4392;47.400;8.062;2023-02-08T00:18:21;3.10;77.30
8711;DHT22;4392;47.400;8.062;2023-02-08T00:20:49;3.00;77.20
8711;DHT22;4392;47.400;8.062;2023-02-08T00:23:18;3.00;77.20
8711;DHT22;4392;47.400;8.062;2023-02-08T00:25:44;3.00;76.90
8711;DHT22;4392;47.400;8.062;2023-02-08T00:28:18;3.00;76.70
8711;DHT22;4392;47.400;8.062;2023-02-08T00:30:44;3.00;76.70
8711;DHT22;4392;47.400;8.062;2023-02-08T00:33:10;3.00;78.00
8711;DHT22;4392;47.400;8.062;2023-02-08T00:35:36;3.00;77.00
8711;DHT22;4392;47.400;8.062;2023-02-08T00:38:02;3.00;76.80
8711;DHT22;4392;47.400;8.062;2023-02-08T00:40:28;3.00;76.60
8711;DHT22;4392;47.400;8.062;2023-02-08T00:42:59;3.00;76.50
8711;DHT22;4392;47.400;8.062;2023-02-08T00:45:31;2.90;76.00
8711;DHT22;4392;47.400;8.062;2023-02-08T00:47:58;2.90;75.90
8711;DHT22;4392;47.400;8.062;2023-02-08T00:50:24;2.90;76.00
8711;DHT22;4392;47.400;8.062;2023-02-08T00:52:49;2.80;75.70
8711;DHT22;4392;47.400;8.062;2023-02-08T00:55:15;2.80;75.70
8711;DHT22;4392;47.400;8.062;2023-02-08T00:57:41;2.80;75.50
8711;DHT22;4392;47.400;8.062;2023-02-08T01:00:09;2.80;75.50
8711;DHT22;4392;47.400;8.062;2023-02-08T01:02:48;2.80;75.40
8711;DHT22;4392;47.400;8.062;2023-02-08T01:05:14;2.80;75.40
8711;DHT22;4392;47.400;8.062;2023-02-08T01:07:46;2.70;75.40
8711;DHT22;4392;47.400;8.062;2023-02-08T01:10:14;2.70;75.40
8711;DHT22;4392;47.400;8.062;2023-02-08T01:12:47;2.70;76.30
8711;DHT22;4392;47.400;8.062;2023-02-08T01:15:15;2.70;75.30
8711;DHT22;4392;47.400;8.062;2023-02-08T01:17:47;2.70;75.80
8711;DHT22;4392;47.400;8.062;2023-02-08T01:20:12;2.80;76.10
8711;DHT22;4392;47.400;8.062;2023-02-08T01:22:38;2.70;75.70
8711;DHT22;4392;47.400;8.062;2023-02-08T01:25:04;2.70;75.00
8711;DHT22;4392;47.400;8.062;2023-02-08T01:27:32;2.60;75.30
8711;DHT22;4392;47.400;8.062;2023-02-08T01:29:58;2.60;75.30
8711;DHT22;4392;47.400;8.062;2023-02-08T01:32:23;2.60;75.20
8711;DHT22;4392;47.400;8.062;2023-02-08T01:34:49;2.60;75.20
8711;DHT22;4392;47.400;8.062;2023-02-08T01:37:17;2.60;75.50
8711;DHT22;4392;47.400;8.062;2023-02-08T01:39:43;2.50;75.40
8711;DHT22;4392;47.400;8.062;2023-02-08T01:42:29;2.60;75.70
8711;DHT22;4392;47.400;8.062;2023-02-08T01:47:47;2.50;75.70
8711;DHT22;4392;47.400;8.062;2023-02-08T01:50:14;2.50;75.80
8711;DHT22;4392;47.400;8.062;2023-02-08T01:52:42;2.50;75.90
8711;DHT22;4392;47.400;8.062;2023-02-08T01:55:19;2.50;75.70
8711;DHT22;4392;47.400;8.062;2023-02-08T01:58:09;2.40;75.40
8711;DHT22;4392;47.400;8.062;2023-02-08T02:00:39;2.40;75.50
8711;DHT22;4392;47.400;8.062;2023-02-08T02:03:07;2.40;75.50
8711;DHT22;4392;47.400;8.062;2023-02-08T02:05:38;2.40;75.20
8711;DHT22;4392;47.400;8.062;2023-02-08T02:08:05;2.40;75.00
8711;DHT22;4392;47.400;8.062;2023-02-08T02:10:33;2.40;74.80
8711;DHT22;4392;47.400;8.062;2023-02-08T02:13:20;2.40;74.80
8711;DHT22;4392;47.400;8.062;2023-02-08T02:15:47;2.40;74.90
8711;DHT22;4392;47.400;8.062;2023-02-08T02:18:31;2.40;74.80
8711;DHT22;4392;47.400;8.062;2023-02-08T02:29:45;2.30;74.20
8711;DHT22;4392;47.400;8.062;2023-02-08T02:38:03;2.30;73.80
8711;DHT22;4392;47.400;8.062;2023-02-08T02:40:50;2.20;73.40
8711;DHT22;4392;47.400;8.062;2023-02-08T02:43:44;2.20;73.50
8711;DHT22;4392;47.400;8.062;2023-02-08T02:48:59;2.20;73.60
8711;DHT22;4392;47.400;8.062;2023-02-08T02:51:27;2.40;74.50
8711;DHT22;4392;47.400;8.062;2023-02-08T02:54:04;2.70;75.30
8711;DHT22;4392;47.400;8.062;2023-02-08T02:56:37;2.70;75.10
8711;DHT22;4392;47.400;8.062;2023-02-08T02:59:12;2.60;74.50
8711;DHT22;4392;47.400;8.062;2023-02-08T03:01:41;2.70;74.40
8711;DHT22;4392;47.400;8.062;2023-02-08T03:04:45;2.60;75.10
8711;DHT22;4392;47.400;8.062;2023-02-08T03:13:02;2.70;73.90
8711;DHT22;4392;47.400;8.062;2023-02-08T03:24:23;3.50;75.70
8711;DHT22;4392;47.400;8.062;2023-02-08T03:32:54;3.00;74.90
8711;DHT22;4392;47.400;8.062;2023-02-08T03:35:40;2.90;74.70
8711;DHT22;4392;47.400;8.062;2023-02-08T03:38:43;3.20;92.20
8711;DHT22;4392;47.400;8.062;2023-02-08T03:41:19;3.70;76.90
8711;DHT22;4392;47.400;8.062;2023-02-08T03:44:00;3.20;75.40
8711;DHT22;4392;47.400;8.062;2023-02-08T03:46:34;2.90;74.60
8711;DHT22;4392;47.400;8.062;2023-02-08T03:49:12;2.70;73.80
8711;DHT22;4392;47.400;8.062;2023-02-08T03:51:42;2.60;73.30
8711;DHT22;4392;47.400;8.062;2023-02-08T03:54:16;2.60;73.70
8711;DHT22;4392;47.400;8.062;2023-02-08T03:57:19;2.60;73.50
8711;DHT22;4392;47.400;8.062;2023-02-08T03:59:57;2.50;73.30
8711;DHT22;4392;47.400;8.062;2023-02-08T04:02:30;2.50;73.70
8711;DHT22;4392;47.400;8.062;2023-02-08T04:04:58;2.50;73.50
8711;DHT22;4392;47.400;8.062;2023-02-08T04:07:27;2.50;73.40
8711;DHT22;4392;47.400;8.062;2023-02-08T04:09:55;2.50;73.00
8711;DHT22;4392;47.400;8.062;2023-02-08T04:12:21;2.50;72.50
8711;DHT22;4392;47.400;8.062;2023-02-08T04:14:47;2.50;72.30
8711;DHT22;4392;47.400;8.062;2023-02-08T04:17:12;2.40;72.40
8711;DHT22;4392;47.400;8.062;2023-02-08T04:19:38;2.40;72.30
8711;DHT22;4392;47.400;8.062;2023-02-08T04:22:06;2.40;72.00
8711;DHT22;4392;47.400;8.062;2023-02-08T04:24:33;2.40;72.80
8711;DHT22;4392;47.400;8.062;2023-02-08T04:26:59;2.70;76.00
8711;DHT22;4392;47.400;8.062;2023-02-08T04:29:25;2.60;71.60
8711;DHT22;4392;47.400;8.062;2023-02-08T04:31:50;2.40;70.00
8711;DHT22;4392;47.400;8.062;2023-02-08T04:34:18;2.20;70.50
8711;DHT22;4392;47.400;8.062;2023-02-08T04:36:46;2.20;70.20
8711;DHT22;4392;47.400;8.062;2023-02-08T04:39:11;2.10;70.10
8711;DHT22;4392;47.400;8.062;2023-02-08T04:41:37;2.10;70.20
8711;DHT22;4392;47.400;8.062;2023-02-08T04:44:02;2.10;70.20
8711;DHT22;4392;47.400;8.062;2023-02-08T04:46:28;2.10;70.00
8711;DHT22;4392;47.400;8.062;2023-02-08T04:48:54;2.10;70.40
8711;DHT22;4392;47.400;8.062;2023-02-08T04:51:19;2.00;70.20
8711;DHT22;4392;47.400;8.062;2023-02-08T04:53:47;2.00;70.30
8711;DHT22;4392;47.400;8.062;2023-02-08T04:56:13;2.50;99.90
8711;DHT22;4392;47.400;8.062;2023-02-08T04:58:39;6.30;99.90
8711;DHT22;4392;47.400;8.062;2023-02-08T05:01:06;4.70;74.00
8711;DHT22;4392;47.400;8.062;2023-02-08T05:03:40;3.60;72.70
8711;DHT22;4392;47.400;8.062;2023-02-08T05:06:05;3.00;72.70
8711;DHT22;4392;47.400;8.062;2023-02-08T05:08:34;2.70;72.70
8711;DHT22;4392;47.400;8.062;2023-02-08T05:11:02;2.50;73.00
8711;DHT22;4392;47.400;8.062;2023-02-08T05:13:28;2.40;73.20
8711;DHT22;4392;47.400;8.062;2023-02-08T05:15:54;2.40;74.60
8711;DHT22;4392;47.400;8.062;2023-02-08T05:18:20;5.00;99.90
8711;DHT22;4392;47.400;8.062;2023-02-08T05:20:53;5.40;79.50
8711;DHT22;4392;47.400;8.062;2023-02-08T05:23:19;4.00;71.70
8711;DHT22;4392;47.400;8.062;2023-02-08T05:25:51;3.20;72.60
8711;DHT22;4392;47.400;8.062;2023-02-08T05:28:17;2.80;73.10
8711;DHT22;4392;47.400;8.062;2023-02-08T05:30:44;2.60;73.40
8711;DHT22;4392;47.400;8.062;2023-02-08T05:33:10;2.40;73.20
8711;DHT22;4392;47.400;8.062;2023-02-08T05:35:35;2.40;73.70
8711;DHT22;4392;47.400;8.062;2023-02-08T05:38:02;2.30;73.80
8711;DHT22;4392;47.400;8.062;2023-02-08T05:40:28;2.30;73.50
8711;DHT22;4392;47.400;8.062;2023-02-08T05:42:54;2.30;73.50
8711;DHT22;4392;47.400;8.062;2023-02-08T05:45:21;2.20;73.10
8711;DHT22;4392;47.400;8.062;2023-02-08T05:47:47;2.20;73.40
8711;DHT22;4392;47.400;8.062;2023-02-08T05:50:13;2.20;73.50
8711;DHT22;4392;47.400;8.062;2023-02-08T05:52:44;2.20;73.90
8711;DHT22;4392;47.400;8.062;2023-02-08T05:55:10;2.20;73.50
8711;DHT22;4392;47.400;8.062;2023-02-08T05:57:36;2.20;73.80
8711;DHT22;4392;47.400;8.062;2023-02-08T06:00:08;2.10;74.20
8711;DHT22;4392;47.400;8.062;2023-02-08T06:02:36;2.10;74.90
8711;DHT22;4392;47.400;8.062;2023-02-08T06:05:02;2.10;75.50
8711;DHT22;4392;47.400;8.062;2023-02-08T06:07:28;2.10;75.80
8711;DHT22;4392;47.400;8.062;2023-02-08T06:09:55;2.10;76.10
8711;DHT22;4392;47.400;8.062;2023-02-08T06:12:21;2.00;76.20
8711;DHT22;4392;47.400;8.062;2023-02-08T06:14:47;2.00;76.20
8711;DHT22;4392;47.400;8.062;2023-02-08T06:17:15;2.00;76.50
8711;DHT22;4392;47.400;8.062;2023-02-08T06:19:40;2.00;76.60
8711;DHT22;4392;47.400;8.062;2023-02-08T06:22:06;2.00;77.10
8711;DHT22;4392;47.400;8.062;2023-02-08T06:24:31;2.00;77.20
8711;DHT22;4392;47.400;8.062;2023-02-08T06:26:57;2.00;77.10
8711;DHT22;4392;47.400;8.062;2023-02-08T06:29:23;2.00;77.30
8711;DHT22;4392;47.400;8.062;2023-02-08T06:31:48;2.00;77.40
8711;DHT22;4392;47.400;8.062;2023-02-08T06:34:16;2.00;77.60
8711;DHT22;4392;47.400;8.062;2023-02-08T06:36:42;2.00;77.90
8711;DHT22;4392;47.400;8.062;2023-02-08T06:39:09;2.00;77.90
8711;DHT22;4392;47.400;8.062;2023-02-08T06:41:37;2.00;78.20
8711;DHT22;4392;47.400;8.062;2023-02-08T06:44:05;2.00;78.20
8711;DHT22;4392;47.400;8.062;2023-02-08T06:46:31;2.00;78.40
8711;DHT22;4392;47.400;8.062;2023-02-08T06:48:56;2.00;78.30
8711;DHT22;4392;47.400;8.062;2023-02-08T06:51:25;2.00;78.60
8711;DHT22;4392;47.400;8.062;2023-02-08T06:53:59;2.00;78.70
8711;DHT22;4392;47.400;8.062;2023-02-08T06:56:27;2.10;79.00
8711;DHT22;4392;47.400;8.062;2023-02-08T06:58:59;1.90;78.10
8711;DHT22;4392;47.400;8.062;2023-02-08T07:01:25;1.90;78.30
8711;DHT22;4392;47.400;8.062;2023-02-08T07:03:50;2.00;78.20
8711;DHT22;4392;47.400;8.062;2023-02-08T07:06:18;1.90;76.70
8711;DHT22;4392;47.400;8.062;2023-02-08T07:08:46;1.90;76.10
8711;DHT22;4392;47.400;8.062;2023-02-08T07:11:16;1.90;75.70
8711;DHT22;4392;47.400;8.062;2023-02-08T07:13:42;1.90;75.50
8711;DHT22;4392;47.400;8.062;2023-02-08T07:16:12;2.00;75.10
8711;DHT22;4392;47.400;8.062;2023-02-08T07:18:37;2.00;74.80
8711;DHT22;4392;47.400;8.062;2023-02-08T07:21:03;2.00;74.50
8711;DHT22;4392;47.400;8.062;2023-02-08T07:23:29;1.90;74.60
8711;DHT22;4392;47.400;8.062;2023-02-08T07:26:15;1.90;74.70
8711;DHT22;4392;47.400;8.062;2023-02-08T07:28:41;1.90;74.60
8711;DHT22;4392;47.400;8.062;2023-02-08T07:31:08;2.00;74.60
8711;DHT22;4392;47.400;8.062;2023-02-08T07:33:35;2.00;74.40
8711;DHT22;4392;47.400;8.062;2023-02-08T07:36:06;2.00;73.50
8711;DHT22;4392;47.400;8.062;2023-02-08T07:38:33;2.00;73.30
8711;DHT22;4392;47.400;8.062;2023-02-08T07:41:10;2.00;73.30
8711;DHT22;4392;47.400;8.062;2023-02-08T07:43:43;2.00;73.40
8711;DHT22;4392;47.400;8.062;2023-02-08T07:46:16;1.90;73.20
8711;DHT22;4392;47.400;8.062;2023-02-08T07:48:42;1.90;72.70
8711;DHT22;4392;47.400;8.062;2023-02-08T07:51:09;1.60;73.30
8711;DHT22;4392;47.400;8.062;2023-02-08T07:53:35;1.70;73.50
8711;DHT22;4392;47.400;8.062;2023-02-08T07:56:03;1.70;72.70
8711;DHT22;4392;47.400;8.062;2023-02-08T07:58:30;1.70;72.90
8711;DHT22;4392;47.400;8.062;2023-02-08T08:00:55;1.70;73.20
8711;DHT22;4392;47.400;8.062;2023-02-08T08:03:25;1.80;72.70
8711;DHT22;4392;47.400;8.062;2023-02-08T08:05:51;1.70;72.80
8711;DHT22;4392;47.400;8.062;2023-02-08T08:08:18;1.70;72.70
8711;DHT22;4392;47.400;8.062;2023-02-08T08:10:44;1.80;73.40
8711;DHT22;4392;47.400;8.062;2023-02-08T08:13:11;1.80;73.80
8711;DHT22;4392;47.400;8.062;2023-02-08T08:15:38;1.80;73.70
8711;DHT22;4392;47.400;8.062;2023-02-08T08:18:03;1.80;74.00
8711;DHT22;4392;47.400;8.062;2023-02-08T08:20:29;1.90;74.20
8711;DHT22;4392;47.400;8.062;2023-02-08T08:22:55;1.80;73.90
8711;DHT22;4392;47.400;8.062;2023-02-08T08:25:28;1.80;73.90
8711;DHT22;4392;47.400;8.062;2023-02-08T08:27:54;1.80;74.40
8711;DHT22;4392;47.400;8.062;2023-02-08T08:30:26;1.90;75.50
8711;DHT22;4392;47.400;8.062;2023-02-08T08:32:52;1.90;76.20
8711;DHT22;4392;47.400;8.062;2023-02-08T08:35:18;2.00;76.60
8711;DHT22;4392;47.400;8.062;2023-02-08T08:37:45;2.00;76.30
8711;DHT22;4392;47.400;8.062;2023-02-08T08:40:11;2.00;76.00
8711;DHT22;4392;47.400;8.062;2023-02-08T08:42:38;2.10;76.10
8711;DHT22;4392;47.400;8.062;2023-02-08T08:45:07;2.10;77.00
8711;DHT22;4392;47.400;8.062;2023-02-08T08:47:33;2.10;76.30
8711;DHT22;4392;47.400;8.062;2023-02-08T08:50:07;2.20;76.30
8711;DHT22;4392;47.400;8.062;2023-02-08T08:52:33;2.20;76.20
8711;DHT22;4392;47.400;8.062;2023-02-08T08:54:59;2.20;76.00
8711;DHT22;4392;47.400;8.062;2023-02-08T08:57:27;2.30;75.80
8711;DHT22;4392;47.400;8.062;2023-02-08T08:59:55;2.30;75.00
8711;DHT22;4392;47.400;8.062;2023-02-08T09:02:21;2.20;74.60
8711;DHT22;4392;47.400;8.062;2023-02-08T09:04:46;2.20;74.50
8711;DHT22;4392;47.400;8.062;2023-02-08T09:07:12;2.30;74.60
8711;DHT22;4392;47.400;8.062;2023-02-08T09:09:41;2.30;74.30
8711;DHT22;4392;47.400;8.062;2023-02-08T09:12:07;2.30;74.00
8711;DHT22;4392;47.400;8.062;2023-02-08T09:14:33;2.30;73.80
8711;DHT22;4392;47.400;8.062;2023-02-08T09:16:59;2.30;73.70
8711;DHT22;4392;47.400;8.062;2023-02-08T09:19:25;2.30;73.70
8711;DHT22;4392;47.400;8.062;2023-02-08T09:21:52;2.30;73.40
8711;DHT22;4392;47.400;8.062;2023-02-08T09:24:18;2.30;73.80
8711;DHT22;4392;47.400;8.062;2023-02-08T09:26:46;2.30;73.30
8711;DHT22;4392;47.400;8.062;2023-02-08T09:29:11;2.30;73.70
8711;DHT22;4392;47.400;8.062;2023-02-08T09:31:37;2.30;74.00
8711;DHT22;4392;47.400;8.062;2023-02-08T09:34:10;2.40;73.90
8711;DHT22;4392;47.400;8.062;2023-02-08T09:36:37;2.30;73.70
8711;DHT22;4392;47.400;8.062;2023-02-08T09:39:14;2.30;73.80
8711;DHT22;4392;47.400;8.062;2023-02-08T09:44:40;2.40;73.90
8711;DHT22;4392;47.400;8.062;2023-02-08T09:50:01;2.40;73.90
8711;DHT22;4392;47.400;8.062;2023-02-08T09:52:46;2.50;73.90
8711;DHT22;4392;47.400;8.062;2023-02-08T09:55:35;2.50;73.80
8711;DHT22;4392;47.400;8.062;2023-02-08T09:58:36;2.50;74.00
8711;DHT22;4392;47.400;8.062;2023-02-08T10:01:05;2.40;73.60
8711;DHT22;4392;47.400;8.062;2023-02-08T10:03:36;2.40;73.80
8711;DHT22;4392;47.400;8.062;2023-02-08T10:06:08;2.40;74.30
8711;DHT22;4392;47.400;8.062;2023-02-08T10:08:37;2.50;74.50
8711;DHT22;4392;47.400;8.062;2023-02-08T10:20:44;2.50;75.00
8711;DHT22;4392;47.400;8.062;2023-02-08T10:23:56;2.50;73.90
8711;DHT22;4392;47.400;8.062;2023-02-08T10:31:55;2.50;74.20
8711;DHT22;4392;47.400;8.062;2023-02-08T10:34:43;2.50;74.20
8711;DHT22;4392;47.400;8.062;2023-02-08T10:37:30;2.50;74.60
8711;DHT22;4392;47.400;8.062;2023-02-08T10:45:40;2.50;74.40
8711;DHT22;4392;47.400;8.062;2023-02-08T10:48:26;2.50;74.50
8711;DHT22;4392;47.400;8.062;2023-02-08T10:50:59;2.50;74.30
8711;DHT22;4392;47.400;8.062;2023-02-08T10:53:35;2.50;74.50
8711;DHT22;4392;47.400;8.062;2023-02-08T10:56:02;2.50;74.30
8711;DHT22;4392;47.400;8.062;2023-02-08T10:58:30;2.50;74.60
8711;DHT22;4392;47.400;8.062;2023-02-08T11:01:07;2.50;74.50
8711;DHT22;4392;47.400;8.062;2023-02-08T11:03:33;2.80;87.00
8711;DHT22;4392;47.400;8.062;2023-02-08T11:06:02;2.90;76.70
8711;DHT22;4392;47.400;8.062;2023-02-08T11:08:27;2.80;76.00
8711;DHT22;4392;47.400;8.062;2023-02-08T11:11:08;2.80;75.10
8711;DHT22;4392;47.400;8.062;2023-02-08T11:13:47;2.80;74.80
8711;DHT22;4392;47.400;8.062;2023-02-08T11:16:28;2.70;75.00
8711;DHT22;4392;47.400;8.062;2023-02-08T11:18:56;2.70;74.10
8711;DHT22;4392;47.400;8.062;2023-02-08T11:21:36;2.70;74.40
8711;DHT22;4392;47.400;8.062;2023-02-08T11:26:40;2.80;73.50
8711;DHT22;4392;47.400;8.062;2023-02-08T11:29:13;2.90;73.50
8711;DHT22;4392;47.400;8.062;2023-02-08T11:31:58;2.90;73.40
8711;DHT22;4392;47.400;8.062;2023-02-08T11:34:37;2.90;73.00
8711;DHT22;4392;47.400;8.062;2023-02-08T11:37:17;2.90;73.40
8711;DHT22;4392;47.400;8.062;2023-02-08T11:40:05;3.00;73.40
8711;DHT22;4392;47.400;8.062;2023-02-08T11:42:39;2.90;73.40
8711;DHT22;4392;47.400;8.062;2023-02-08T11:45:06;3.00;73.20
8711;DHT22;4392;47.400;8.062;2023-02-08T11:47:34;3.00;72.70
8711;DHT22;4392;47.400;8.062;2023-02-08T11:50:05;3.00;72.10
8711;DHT22;4392;47.400;8.062;2023-02-08T11:52:41;2.90;71.20
8711;DHT22;4392;47.400;8.062;2023-02-08T11:57:54;2.90;72.60
8711;DHT22;4392;47.400;8.062;2023-02-08T12:00:24;3.00;71.80
8711;DHT22;4392;47.400;8.062;2023-02-08T12:08:25;3.10;72.30
8711;DHT22;4392;47.400;8.062;2023-02-08T12:21:46;3.30;71.60
8711;DHT22;4392;47.400;8.062;2023-02-08T12:41:34;3.40;71.50
8711;DHT22;4392;47.400;8.062;2023-02-08T12:44:44;3.40;70.80
8711;DHT22;4392;47.400;8.062;2023-02-08T12:53:19;3.50;71.10
8711;DHT22;4392;47.400;8.062;2023-02-08T12:55:50;3.30;71.30
8711;DHT22;4392;47.400;8.062;2023-02-08T12:58:38;3.40;72.10
8711;DHT22;4392;47.400;8.062;2023-02-08T13:03:44;3.20;72.10
8711;DHT22;4392;47.400;8.062;2023-02-08T13:06:39;3.30;72.10
8711;DHT22;4392;47.400;8.062;2023-02-08T13:12:18;3.10;71.50
8711;DHT22;4392;47.400;8.062;2023-02-08T13:17:29;3.50;71.50
8711;DHT22;4392;47.400;8.062;2023-02-08T13:20:06;3.50;71.20
8711;DHT22;4392;47.400;8.062;2023-02-08T13:22:39;3.50;69.80
8711;DHT22;4392;47.400;8.062;2023-02-08T13:25:20;3.30;69.90
8711;DHT22;4392;47.400;8.062;2023-02-08T13:27:53;3.50;71.40
8711;DHT22;4392;47.400;8.062;2023-02-08T13:30:26;3.60;70.30
8711;DHT22;4392;47.400;8.062;2023-02-08T13:32:53;3.70;70.50
8711;DHT22;4392;47.400;8.062;2023-02-08T13:35:24;3.80;70.80
8711;DHT22;4392;47.400;8.062;2023-02-08T13:38:16;4.00;69.80
8711;DHT22;4392;47.400;8.062;2023-02-08T13:40:43;4.10;70.30
8711;DHT22;4392;47.400;8.062;2023-02-08T13:43:41;4.20;69.40
8711;DHT22;4392;47.400;8.062;2023-02-08T13:46:12;4.10;68.80
8711;DHT22;4392;47.400;8.062;2023-02-08T13:48:49;4.30;68.30
8711;DHT22;4392;47.400;8.062;2023-02-08T13:56:45;4.40;67.70
8711;DHT22;4392;47.400;8.062;2023-02-08T13:59:39;4.50;67.60
8711;DHT22;4392;47.400;8.062;2023-02-08T14:02:26;4.50;67.30
8711;DHT22;4392;47.400;8.062;2023-02-08T14:04:54;4.50;66.50
8711;DHT22;4392;47.400;8.062;2023-02-08T14:07:41;4.40;66.90
8711;DHT22;4392;47.400;8.062;2023-02-08T14:10:40;4.50;66.90
8711;DHT22;4392;47.400;8.062;2023-02-08T14:19:24;4.70;67.80
8711;DHT22;4392;47.400;8.062;2023-02-08T14:24:58;5.00;66.40
8711;DHT22;4392;47.400;8.062;2023-02-08T14:28:15;5.00;64.80
8711;DHT22;4392;47.400;8.062;2023-02-08T14:30:38;5.10;64.70
8711;DHT22;4392;47.400;8.062;2023-02-08T14:35:50;4.70;63.60
8711;DHT22;4392;47.400;8.062;2023-02-08T14:41:46;5.00;65.50
8711;DHT22;4392;47.400;8.062;2023-02-08T14:49:54;5.40;63.60
8711;DHT22;4392;47.400;8.062;2023-02-08T14:52:24;5.40;62.70
8711;DHT22;4392;47.400;8.062;2023-02-08T14:57:29;5.40;64.90
8711;DHT22;4392;47.400;8.062;2023-02-08T15:00:01;5.60;63.80
8711;DHT22;4392;47.400;8.062;2023-02-08T15:02:28;5.60;63.30
8711;DHT22;4392;47.400;8.062;2023-02-08T15:05:02;5.60;61.80
8711;DHT22;4392;47.400;8.062;2023-02-08T15:07:46;5.40;62.10
8711;DHT22;4392;47.400;8.062;2023-02-08T15:10:16;5.60;63.00
8711;DHT22;4392;47.400;8.062;2023-02-08T15:12:45;5.50;61.40
8711;DHT22;4392;47.400;8.062;2023-02-08T15:15:37;5.60;62.40
8711;DHT22;4392;47.400;8.062;2023-02-08T15:18:05;5.70;61.60
8711;DHT22;4392;47.400;8.062;2023-02-08T15:20:35;5.80;62.80
8711;DHT22;4392;47.400;8.062;2023-02-08T15:23:24;5.90;62.80
8711;DHT22;4392;47.400;8.062;2023-02-08T15:26:04;5.90;62.10
8711;DHT22;4392;47.400;8.062;2023-02-08T15:28:34;6.00;61.80
8711;DHT22;4392;47.400;8.062;2023-02-08T15:31:11;5.90;62.20
8711;DHT22;4392;47.400;8.062;2023-02-08T15:33:52;5.80;61.10
8711;DHT22;4392;47.400;8.062;2023-02-08T15:36:33;5.40;62.10
8711;DHT22;4392;47.400;8.062;2023-02-08T15:41:47;5.80;62.50
8711;DHT22;4392;47.400;8.062;2023-02-08T15:44:23;5.90;62.10
8711;DHT22;4392;47.400;8.062;2023-02-08T15:46:50;5.90;61.70
8711;DHT22;4392;47.400;8.062;2023-02-08T15:49:30;5.90;61.30
8711;DHT22;4392;47.400;8.062;2023-02-08T15:51:57;5.80;63.60
8711;DHT22;4392;47.400;8.062;2023-02-08T15:54:26;5.50;68.20
8711;DHT22;4392;47.400;8.062;2023-02-08T15:59:58;5.70;63.60
8711;DHT22;4392;47.400;8.062;2023-02-08T16:02:32;5.50;63.10
8711;DHT22;4392;47.400;8.062;2023-02-08T16:05:08;5.50;63.40
8711;DHT22;4392;47.400;8.062;2023-02-08T16:07:46;5.30;63.10
8711;DHT22;4392;47.400;8.062;2023-02-08T16:10:38;5.00;64.60
8711;DHT22;4392;47.400;8.062;2023-02-08T16:13:25;4.80;65.50
8711;DHT22;4392;47.400;8.062;2023-02-08T16:15:54;4.90;65.20
8711;DHT22;4392;47.400;8.062;2023-02-08T16:18:40;4.90;64.70
8711;DHT22;4392;47.400;8.062;2023-02-08T16:29:48;4.70;65.30
8711;DHT22;4392;47.400;8.062;2023-02-08T16:32:27;4.60;66.30
8711;DHT22;4392;47.400;8.062;2023-02-08T16:34:53;4.70;65.80
8711;DHT22;4392;47.400;8.062;2023-02-08T16:37:28;4.60;65.60
8711;DHT22;4392;47.400;8.062;2023-02-08T16:43:32;4.40;66.80
8711;DHT22;4392;47.400;8.062;2023-02-08T16:46:16;4.40;67.00
8711;DHT22;4392;47.400;8.062;2023-02-08T16:51:37;4.40;69.40
8711;DHT22;4392;47.400;8.062;2023-02-08T16:54:11;6.00;99.90
8711;DHT22;4392;47.400;8.062;2023-02-08T16:56:49;8.10;99.90
8711;DHT22;4392;47.400;8.062;2023-02-08T16:59:21;8.80;99.90
8711;DHT22;4392;47.400;8.062;2023-02-08T17:01:50;9.30;95.40
8711;DHT22;4392;47.400;8.062;2023-02-08T17:04:26;9.70;87.60
8711;DHT22;4392;47.400;8.062;2023-02-08T17:06:53;7.90;62.90
8711;DHT22;4392;47.400;8.062;2023-02-08T17:09:23;6.70;65.20
8711;DHT22;4392;47.400;8.062;2023-02-08T17:11:52;6.20;67.50
8711;DHT22;4392;47.400;8.062;2023-02-08T17:14:22;5.90;68.50
8711;DHT22;4392;47.400;8.062;2023-02-08T17:16:51;5.70;69.90
8711;DHT22;4392;47.400;8.062;2023-02-08T17:19:19;5.50;68.50
8711;DHT22;4392;47.400;8.062;2023-02-08T17:21:46;5.20;68.90
8711;DHT22;4392;47.400;8.062;2023-02-08T17:24:18;5.00;68.90
8711;DHT22;4392;47.400;8.062;2023-02-08T17:26:45;4.80;69.30
8711;DHT22;4392;47.400;8.062;2023-02-08T17:29:13;4.70;70.20
8711;DHT22;4392;47.400;8.062;2023-02-08T17:31:42;4.70;71.40
8711;DHT22;4392;47.400;8.062;2023-02-08T17:34:08;4.70;72.70
8711;DHT22;4392;47.400;8.062;2023-02-08T17:36:34;4.70;73.50
8711;DHT22;4392;47.400;8.062;2023-02-08T17:39:03;4.70;73.90
8711;DHT22;4392;47.400;8.062;2023-02-08T17:41:32;4.60;74.50
8711;DHT22;4392;47.400;8.062;2023-02-08T17:43:58;4.50;75.00
8711;DHT22;4392;47.400;8.062;2023-02-08T17:46:26;4.50;74.90
8711;DHT22;4392;47.400;8.062;2023-02-08T17:48:56;4.50;75.70
8711;DHT22;4392;47.400;8.062;2023-02-08T17:51:26;4.40;75.30
8711;DHT22;4392;47.400;8.062;2023-02-08T17:53:55;4.30;75.80
8711;DHT22;4392;47.400;8.062;2023-02-08T17:56:23;4.30;75.80
8711;DHT22;4392;47.400;8.062;2023-02-08T17:58:53;4.20;75.60
8711;DHT22;4392;47.400;8.062;2023-02-08T18:01:24;4.10;76.10
8711;DHT22;4392;47.400;8.062;2023-02-08T18:03:55;4.10;76.40
8711;DHT22;4392;47.400;8.062;2023-02-08T18:06:27;4.10;78.20
8711;DHT22;4392;47.400;8.062;2023-02-08T18:08:53;4.10;79.40
8711;DHT22;4392;47.400;8.062;2023-02-08T18:11:19;4.10;77.60
8711;DHT22;4392;47.400;8.062;2023-02-08T18:13:47;4.00;76.10
8711;DHT22;4392;47.400;8.062;2023-02-08T18:16:24;3.80;75.10
8711;DHT22;4392;47.400;8.062;2023-02-08T18:18:57;3.70;74.60
8711;DHT22;4392;47.400;8.062;2023-02-08T18:21:24;3.90;78.20
8711;DHT22;4392;47.400;8.062;2023-02-08T18:23:59;3.90;76.10
8711;DHT22;4392;47.400;8.062;2023-02-08T18:26:31;3.80;76.20
8711;DHT22;4392;47.400;8.062;2023-02-08T18:28:59;3.80;76.00
8711;DHT22;4392;47.400;8.062;2023-02-08T18:31:27;3.80;77.10
8711;DHT22;4392;47.400;8.062;2023-02-08T18:33:56;3.80;76.70
8711;DHT22;4392;47.400;8.062;2023-02-08T18:36:23;3.80;76.60
8711;DHT22;4392;47.400;8.062;2023-02-08T18:38:53;3.80;76.60
8711;DHT22;4392;47.400;8.062;2023-02-08T18:41:25;6.30;96.70
8711;DHT22;4392;47.400;8.062;2023-02-08T18:43:54;5.60;81.70
8711;DHT22;4392;47.400;8.062;2023-02-08T18:46:22;5.10;81.40
8711;DHT22;4392;47.400;8.062;2023-02-08T18:48:53;4.80;80.50
8711;DHT22;4392;47.400;8.062;2023-02-08T18:51:21;4.60;80.40
8711;DHT22;4392;47.400;8.062;2023-02-08T18:53:49;4.50;82.40
8711;DHT22;4392;47.400;8.062;2023-02-08T18:56:19;4.50;80.00
8711;DHT22;4392;47.400;8.062;2023-02-08T18:58:56;4.40;80.10
8711;DHT22;4392;47.400;8.062;2023-02-08T19:01:23;4.30;79.20
8711;DHT22;4392;47.400;8.062;2023-02-08T19:03:48;4.10;78.80
8711;DHT22;4392;47.400;8.062;2023-02-08T19:06:20;4.00;78.40
8711;DHT22;4392;47.400;8.062;2023-02-08T19:08:56;3.90;78.80
8711;DHT22;4392;47.400;8.062;2023-02-08T19:11:31;3.90;80.00
8711;DHT22;4392;47.400;8.062;2023-02-08T19:14:02;3.80;79.40
8711;DHT22;4392;47.400;8.062;2023-02-08T19:16:29;3.80;78.40
8711;DHT22;4392;47.400;8.062;2023-02-08T19:18:55;3.60;78.80
8711;DHT22;4392;47.400;8.062;2023-02-08T19:21:23;3.40;79.50
8711;DHT22;4392;47.400;8.062;2023-02-08T19:23:55;3.30;79.80
8711;DHT22;4392;47.400;8.062;2023-02-08T19:26:36;3.20;80.00
8711;DHT22;4392;47.400;8.062;2023-02-08T19:29:10;3.10;80.30
8711;DHT22;4392;47.400;8.062;2023-02-08T19:31:41;3.10;79.50
8711;DHT22;4392;47.400;8.062;2023-02-08T19:34:06;3.00;80.20